createdAt,value
2022-08-16T00:01:52.342Z,8.02
2022-08-16T00:04:19.804Z,7.55
2022-08-16T00:06:47.560Z,7.80
2022-08-16T00:09:16.883Z,7.90
2022-08-16T00:11:45.582Z,7.30
2022-08-16T00:14:14.806Z,7.47
2022-08-16T00:17:05.551Z,7.72
2022-08-16T00:19:41.530Z,7.57
2022-08-16T00:22:13.579Z,7.28
2022-08-16T00:24:44.808Z,8.07
2022-08-16T00:27:15.143Z,7.15
2022-08-16T00:29:42.631Z,9.20
2022-08-16T00:32:10.917Z,8.75
2022-08-16T00:34:44.638Z,7.95
2022-08-16T00:37:24.377Z,7.85
2022-08-16T00:39:57.361Z,7.57
2022-08-16T00:42:30.112Z,8.95
2022-08-16T00:45:01.465Z,8.05
2022-08-16T00:47:34.853Z,8.07
2022-08-16T00:50:05.050Z,8.80
2022-08-16T00:52:39.209Z,9.13
2022-08-16T00:55:18.514Z,10.25
2022-08-16T00:57:59.585Z,10.88
2022-08-16T01:00:31.003Z,8.68
2022-08-16T01:03:01.725Z,9.05
2022-08-16T01:05:29.814Z,8.75
2022-08-16T01:07:58.625Z,11.60
2022-08-16T01:10:32.075Z,9.85
2022-08-16T01:13:21.222Z,9.07
2022-08-16T01:15:52.606Z,9.30
2022-08-16T01:18:39.725Z,9.57
2022-08-16T01:21:08.605Z,8.32
2022-08-16T01:24:00.871Z,9.55
2022-08-16T01:26:37.450Z,10.88
2022-08-16T01:29:10.865Z,8.43
2022-08-16T01:31:42.663Z,11.82
2022-08-16T01:34:25.068Z,7.75
2022-08-16T01:37:05.079Z,7.85
2022-08-16T01:39:35.393Z,7.78
2022-08-16T01:42:07.806Z,8.27
2022-08-16T01:44:41.022Z,8.52
2022-08-16T01:47:11.212Z,9.70
2022-08-16T01:50:40.755Z,8.55
2022-08-16T01:52:30.550Z,8.45
2022-08-16T01:54:58.428Z,9.75
2022-08-16T01:57:27.722Z,8.82
2022-08-16T01:59:57.129Z,8.32
2022-08-16T02:02:27.408Z,8.98
2022-08-16T02:04:57.485Z,9.85
2022-08-16T02:07:25.663Z,8.35
2022-08-16T02:09:58.185Z,11.48
2022-08-16T02:12:49.769Z,8.97
2022-08-16T02:15:17.225Z,8.75
2022-08-16T02:17:52.544Z,9.32
2022-08-16T02:20:26.414Z,8.68
2022-08-16T02:22:56.008Z,7.95
2022-08-16T02:25:23.805Z,9.20
2022-08-16T02:27:52.077Z,8.32
2022-08-16T02:30:35.978Z,10.60
2022-08-16T02:33:09.402Z,8.70
2022-08-16T02:35:49.957Z,9.75
2022-08-16T02:38:21.675Z,9.18
2022-08-16T02:40:49.538Z,8.60
2022-08-16T02:43:17.129Z,8.48
2022-08-16T02:45:44.905Z,16.80
2022-08-16T02:48:29.648Z,9.85
2022-08-16T02:51:06.398Z,10.82
2022-08-16T02:53:44.700Z,9.30
2022-08-16T02:56:14.802Z,11.15
2022-08-16T02:58:44.160Z,10.63
2022-08-16T03:01:24.101Z,10.73
2022-08-16T03:04:40.564Z,11.00
2022-08-16T03:06:43.924Z,9.70
2022-08-16T03:09:15.026Z,15.50
2022-08-16T03:11:46.031Z,9.00
2022-08-16T03:14:13.659Z,11.20
2022-08-16T03:17:00.243Z,9.48
2022-08-16T03:19:46.815Z,10.20
2022-08-16T03:22:19.520Z,9.35
2022-08-16T03:24:57.532Z,8.98
2022-08-16T03:27:30.769Z,12.43
2022-08-16T03:30:16.498Z,9.52
2022-08-16T03:32:47.167Z,9.63
2022-08-16T03:35:17.547Z,8.82
2022-08-16T03:38:01.831Z,9.57
2022-08-16T03:40:33.289Z,12.82
2022-08-16T03:43:19.847Z,10.23
2022-08-16T03:45:48.582Z,10.85
2022-08-16T03:48:18.325Z,10.23
2022-08-16T03:51:00.220Z,9.93
2022-08-16T03:53:38.059Z,10.35
2022-08-16T03:56:07.994Z,9.88
2022-08-16T03:58:52.588Z,8.63
2022-08-16T04:01:21.359Z,10.65
2022-08-16T04:03:50.308Z,10.50
2022-08-16T04:06:17.852Z,12.35
2022-08-16T04:08:46.839Z,12.25
2022-08-16T04:11:16.382Z,10.13
2022-08-16T04:13:58.928Z,11.27
2022-08-16T04:16:31.037Z,10.05
2022-08-16T04:19:01.986Z,10.48
2022-08-16T04:21:32.237Z,12.73
2022-08-16T04:24:00.259Z,10.75
2022-08-16T04:26:30.733Z,9.70
2022-08-16T04:29:24.252Z,10.95
2022-08-16T04:31:47.468Z,9.35
2022-08-16T04:34:25.040Z,10.75
2022-08-16T04:36:54.333Z,11.07
2022-08-16T04:39:23.826Z,14.95
2022-08-16T04:41:57.090Z,13.70
2022-08-16T04:44:52.611Z,11.38
2022-08-16T04:47:21.418Z,11.40
2022-08-16T04:49:52.358Z,17.30
2022-08-16T04:52:33.719Z,13.50
2022-08-16T04:55:03.954Z,12.88
2022-08-16T04:57:31.351Z,11.55
2022-08-16T04:59:59.588Z,13.57
2022-08-16T05:02:47.454Z,12.43
2022-08-16T05:05:23.287Z,13.07
2022-08-16T05:07:58.500Z,11.98
2022-08-16T05:10:28.156Z,11.32
2022-08-16T05:12:57.082Z,12.40
2022-08-16T05:15:24.660Z,11.65
2022-08-16T05:17:58.653Z,10.90
2022-08-16T05:23:06.944Z,12.90
2022-08-16T05:25:41.178Z,11.75
2022-08-16T05:28:16.618Z,13.65
2022-08-16T05:30:44.491Z,10.18
2022-08-16T05:33:20.087Z,9.77
2022-08-16T05:35:54.637Z,13.13
2022-08-16T05:38:30.753Z,10.18
2022-08-16T05:41:06.269Z,10.43
2022-08-16T05:43:43.635Z,10.57
2022-08-16T05:46:28.827Z,10.63
2022-08-16T05:49:03.146Z,12.95
2022-08-16T05:51:39.003Z,11.02
2022-08-16T05:54:09.621Z,9.65
2022-08-16T05:56:38.916Z,10.95
2022-08-16T05:59:06.814Z,10.50
2022-08-16T06:01:38.415Z,10.93
2022-08-16T06:04:13.048Z,10.10
2022-08-16T06:06:43.564Z,10.45
2022-08-16T06:09:24.156Z,11.10
2022-08-16T06:11:51.923Z,10.38
2022-08-16T06:14:19.467Z,9.40
2022-08-16T06:16:50.710Z,10.02
2022-08-16T06:19:18.638Z,12.38
2022-08-16T06:21:55.175Z,8.82
2022-08-16T06:24:54.602Z,8.75
2022-08-16T06:27:11.497Z,8.65
2022-08-16T06:29:40.565Z,9.55
2022-08-16T06:32:10.081Z,9.10
2022-08-16T06:37:25.166Z,9.55
2022-08-16T06:40:05.351Z,9.30
2022-08-16T06:42:47.412Z,8.80
2022-08-16T06:45:15.874Z,8.18
2022-08-16T06:47:53.339Z,8.27
2022-08-16T06:50:28.811Z,9.80
2022-08-16T06:53:00.519Z,8.40
2022-08-16T06:55:36.924Z,7.15
2022-08-16T06:58:08.480Z,7.32
2022-08-16T07:00:37.823Z,6.53
2022-08-16T07:03:26.510Z,7.93
2022-08-16T07:05:57.111Z,8.32
2022-08-16T07:08:28.754Z,6.72
2022-08-16T07:10:56.804Z,5.53
2022-08-16T07:14:01.914Z,5.75
2022-08-16T07:16:17.198Z,5.93
2022-08-16T07:19:01.612Z,5.68
2022-08-16T07:21:45.975Z,6.30
2022-08-16T07:24:29.822Z,5.53
2022-08-16T07:26:58.667Z,4.95
2022-08-16T07:29:31.628Z,6.50
2022-08-16T07:32:00.701Z,6.60
2022-08-16T07:34:35.384Z,8.77
2022-08-16T07:37:07.620Z,5.60
2022-08-16T07:39:35.790Z,5.47
2022-08-16T07:42:28.222Z,5.63
2022-08-16T07:47:31.581Z,5.22
2022-08-16T07:50:00.013Z,6.65
2022-08-16T07:52:33.522Z,9.05
2022-08-16T07:55:01.068Z,5.70
2022-08-16T07:57:28.634Z,9.75
2022-08-16T07:59:57.345Z,5.90
2022-08-16T08:02:27.520Z,5.60
2022-08-16T08:04:56.180Z,6.68
2022-08-16T08:07:27.623Z,5.03
2022-08-16T08:09:56.527Z,4.95
2022-08-16T08:12:31.350Z,5.18
2022-08-16T08:15:04.077Z,5.28
2022-08-16T08:17:42.151Z,4.88
2022-08-16T08:20:12.535Z,4.82
2022-08-16T08:22:40.069Z,4.75
2022-08-16T08:25:07.981Z,5.07
2022-08-16T08:27:40.622Z,5.80
2022-08-16T08:30:49.969Z,4.80
2022-08-16T08:33:01.058Z,5.28
2022-08-16T08:35:28.857Z,5.07
2022-08-16T08:37:56.674Z,4.95
2022-08-16T08:40:27.395Z,5.47
2022-08-16T08:43:00.785Z,5.15
2022-08-16T08:45:48.359Z,5.65
2022-08-16T08:48:33.570Z,5.45
2022-08-16T08:51:03.676Z,5.90
2022-08-16T08:53:37.378Z,6.68
2022-08-16T08:56:23.820Z,9.10
2022-08-16T08:58:58.921Z,5.13
2022-08-16T09:01:36.455Z,5.63
2022-08-16T09:04:06.145Z,4.55
2022-08-16T09:06:34.179Z,5.00
2022-08-16T09:09:02.398Z,5.47
2022-08-16T09:14:24.769Z,5.13
2022-08-16T09:17:01.329Z,5.03
2022-08-16T09:19:34.778Z,8.27
2022-08-16T09:22:02.429Z,6.88
2022-08-16T09:24:51.516Z,12.25
2022-08-16T09:27:17.826Z,6.53
2022-08-16T09:29:46.755Z,5.22
2022-08-16T09:32:30.339Z,4.55
2022-08-16T09:35:04.575Z,4.55
2022-08-16T09:37:36.817Z,4.40
2022-08-16T09:40:31.905Z,4.85
2022-08-16T09:42:56.470Z,4.72
2022-08-16T09:45:29.134Z,4.38
2022-08-16T09:47:58.525Z,4.72
2022-08-16T09:50:38.328Z,4.18
2022-08-16T09:53:16.654Z,3.85
2022-08-16T09:55:50.237Z,4.60
2022-08-16T09:58:40.793Z,8.45
2022-08-16T10:01:08.638Z,4.13
2022-08-16T10:04:01.014Z,5.15
2022-08-16T10:06:33.475Z,4.95
2022-08-16T10:09:05.744Z,4.13
2022-08-16T10:11:53.551Z,4.40
2022-08-16T10:14:24.899Z,4.38
2022-08-16T10:17:05.211Z,4.78
2022-08-16T10:19:32.991Z,4.15
2022-08-16T10:22:04.916Z,4.13
2022-08-16T10:24:33.087Z,5.60
2022-08-16T10:27:26.597Z,4.57
2022-08-16T10:30:01.113Z,3.97
2022-08-16T10:32:35.075Z,6.43
2022-08-16T10:35:03.871Z,4.07
2022-08-16T10:37:35.789Z,4.13
2022-08-16T10:40:05.732Z,4.68
2022-08-16T10:42:33.228Z,4.82
2022-08-16T10:45:01.519Z,4.13
2022-08-16T10:47:33.161Z,3.97
2022-08-16T10:50:07.407Z,4.68
2022-08-16T10:52:49.872Z,4.47
2022-08-16T10:58:11.607Z,4.28
2022-08-16T11:00:41.392Z,4.28
2022-08-16T11:03:42.302Z,3.95
2022-08-16T11:06:00.278Z,4.88
2022-08-16T11:08:35.422Z,6.07
2022-08-16T11:11:06.841Z,4.32
2022-08-16T11:19:16.511Z,5.28
2022-08-16T11:24:41.302Z,3.58
2022-08-16T11:27:19.958Z,5.00
2022-08-16T11:29:48.698Z,3.45
2022-08-16T11:32:20.252Z,2.58
2022-08-16T11:35:10.217Z,2.92
2022-08-16T11:40:32.754Z,2.72
2022-08-16T11:43:04.100Z,3.17
2022-08-16T11:45:33.850Z,4.07
2022-08-16T11:48:05.644Z,2.85
2022-08-16T11:50:33.985Z,3.10
2022-08-16T11:53:05.825Z,5.15
2022-08-16T11:55:38.175Z,3.42
2022-08-16T11:58:06.331Z,3.50
2022-08-16T12:00:50.531Z,2.85
2022-08-16T12:03:29.661Z,3.33
2022-08-16T12:05:59.934Z,6.40
2022-08-16T12:08:27.367Z,4.72
2022-08-16T12:10:59.385Z,3.22
2022-08-16T12:13:29.886Z,3.05
2022-08-16T12:15:57.347Z,3.60
2022-08-16T12:18:25.215Z,3.38
2022-08-16T12:20:55.190Z,4.28
2022-08-16T12:23:23.387Z,4.25
2022-08-16T12:25:51.068Z,2.90
2022-08-16T12:28:25.304Z,2.88
2022-08-16T12:31:04.818Z,2.72
2022-08-16T12:33:32.547Z,2.60
2022-08-16T12:36:13.138Z,4.18
2022-08-16T12:38:48.176Z,2.65
2022-08-16T12:41:24.612Z,2.85
2022-08-16T12:43:57.231Z,3.00
2022-08-16T12:46:29.202Z,3.95
2022-08-16T12:48:58.626Z,4.50
2022-08-16T12:51:59.662Z,4.57
2022-08-16T12:54:28.998Z,4.93
2022-08-16T12:56:56.505Z,4.18
2022-08-16T12:59:24.368Z,4.55
2022-08-16T13:04:31.449Z,2.78
2022-08-16T13:09:32.100Z,2.50
2022-08-16T13:12:20.995Z,2.47
2022-08-16T13:14:49.899Z,2.88
2022-08-16T13:17:20.098Z,3.15
2022-08-16T13:20:09.265Z,2.75
2022-08-16T13:22:45.326Z,4.03
2022-08-16T13:25:19.477Z,2.58
2022-08-16T13:28:03.377Z,3.20
2022-08-16T13:30:41.650Z,3.08
2022-08-16T13:33:12.618Z,3.45
2022-08-16T13:35:44.058Z,4.78
2022-08-16T13:38:21.556Z,2.67
2022-08-16T13:40:53.472Z,2.40
2022-08-16T13:43:23.703Z,2.53
2022-08-16T13:45:52.009Z,4.20
2022-08-16T13:48:25.325Z,3.28
2022-08-16T13:51:00.590Z,20.35
2022-08-16T13:53:31.323Z,2.97
2022-08-16T13:56:00.514Z,2.83
2022-08-16T13:58:35.186Z,3.72
2022-08-16T14:01:09.848Z,2.90
2022-08-16T14:03:38.718Z,2.90
2022-08-16T14:06:07.475Z,2.22
2022-08-16T14:08:42.414Z,3.95
2022-08-16T14:11:12.617Z,3.65
2022-08-16T14:13:42.710Z,3.45
2022-08-16T14:16:23.512Z,2.95
2022-08-16T14:18:53.288Z,2.72
2022-08-16T14:21:22.048Z,3.17
2022-08-16T14:23:52.399Z,2.55
2022-08-16T14:26:21.566Z,2.65
2022-08-16T14:28:52.889Z,5.22
2022-08-16T14:31:22.248Z,4.97
2022-08-16T14:33:51.813Z,4.00
2022-08-16T14:36:29.874Z,4.20
2022-08-16T14:38:58.351Z,3.63
2022-08-16T14:41:26.344Z,3.78
2022-08-16T14:43:53.870Z,2.95
2022-08-16T14:46:21.741Z,6.40
2022-08-16T14:48:49.125Z,4.57
2022-08-16T14:51:16.792Z,4.45
2022-08-16T14:53:45.387Z,11.98
2022-08-16T14:56:17.597Z,4.00
2022-08-16T14:59:01.221Z,2.70
2022-08-16T15:01:57.576Z,4.95
2022-08-16T15:04:32.382Z,7.80
2022-08-16T15:07:12.698Z,3.08
2022-08-16T15:10:01.044Z,2.65
2022-08-16T15:12:33.458Z,2.50
2022-08-16T15:15:01.627Z,2.47
2022-08-16T15:17:33.828Z,3.28
2022-08-16T15:20:08.587Z,5.13
2022-08-16T15:22:41.307Z,3.58
2022-08-16T15:25:11.263Z,9.63
2022-08-16T15:27:42.343Z,2.70
2022-08-16T15:30:56.979Z,2.78
2022-08-16T15:33:04.026Z,4.53
2022-08-16T15:35:33.588Z,3.53
2022-08-16T15:38:09.195Z,3.58
2022-08-16T15:40:37.291Z,3.47
2022-08-16T15:43:27.312Z,3.20
2022-08-16T15:46:55.777Z,4.10
2022-08-16T15:49:14.252Z,2.75
2022-08-16T15:51:43.687Z,2.80
2022-08-16T15:54:20.970Z,2.50
2022-08-16T15:57:04.278Z,2.72
2022-08-16T15:59:48.588Z,2.85
2022-08-16T16:02:27.288Z,3.10
2022-08-16T16:04:55.745Z,3.35
2022-08-16T16:07:23.422Z,6.05
2022-08-16T16:09:53.904Z,3.47
2022-08-16T16:12:51.090Z,3.45
2022-08-16T16:15:09.575Z,3.55
2022-08-16T16:17:37.058Z,3.42
2022-08-16T16:20:13.802Z,2.90
2022-08-16T16:22:43.670Z,3.47
2022-08-16T16:25:11.326Z,4.20
2022-08-16T16:27:39.055Z,6.72
2022-08-16T16:30:32.739Z,4.28
2022-08-16T16:32:58.549Z,3.25
2022-08-16T16:35:32.614Z,4.43
2022-08-16T16:38:01.398Z,5.50
2022-08-16T16:40:38.899Z,3.45
2022-08-16T16:43:16.122Z,3.88
2022-08-16T16:45:44.140Z,4.20
2022-08-16T16:48:13.126Z,3.58
2022-08-16T16:50:44.688Z,4.03
2022-08-16T16:53:17.466Z,3.95
2022-08-16T16:55:51.844Z,3.70
2022-08-16T16:58:43.343Z,5.72
2022-08-16T17:01:11.181Z,5.03
2022-08-16T17:03:39.023Z,5.65
2022-08-16T17:06:09.347Z,4.90
2022-08-16T17:08:41.414Z,4.22
2022-08-16T17:11:10.131Z,3.58
2022-08-16T17:13:38.749Z,5.10
2022-08-16T17:16:06.353Z,8.15
2022-08-16T17:19:15.289Z,14.10
2022-08-16T17:21:24.373Z,7.10
2022-08-16T17:23:58.609Z,4.95
2022-08-16T17:26:39.538Z,6.45
2022-08-16T17:29:11.615Z,5.07
2022-08-16T17:31:40.797Z,4.57
2022-08-16T17:34:29.308Z,3.97
2022-08-16T17:36:59.737Z,3.40
2022-08-16T17:39:29.946Z,6.43
2022-08-16T17:42:01.446Z,6.63
2022-08-16T17:44:29.132Z,4.57
2022-08-16T17:46:56.897Z,4.38
2022-08-16T17:49:24.716Z,4.38
2022-08-16T17:51:52.167Z,4.25
2022-08-16T17:54:30.675Z,4.03
2022-08-16T17:57:01.633Z,4.97
2022-08-16T17:59:29.421Z,4.10
2022-08-16T18:01:57.147Z,3.92
2022-08-16T18:04:48.747Z,4.65
2022-08-16T18:07:12.151Z,5.03
2022-08-16T18:09:41.911Z,4.05
2022-08-16T18:12:44.049Z,3.95
2022-08-16T18:15:06.858Z,5.18
2022-08-16T18:17:34.454Z,3.90
2022-08-16T18:20:01.992Z,4.60
2022-08-16T18:22:33.326Z,4.20
2022-08-16T18:36:21.240Z,4.53
2022-08-16T18:39:15.939Z,4.97
2022-08-16T18:50:28.776Z,5.17
2022-08-16T18:53:55.651Z,8.18
2022-08-16T18:56:56.227Z,4.45
2022-08-16T19:00:00.425Z,4.47
2022-08-16T19:02:58.723Z,4.88
2022-08-16T19:05:57.009Z,4.85
2022-08-16T19:14:41.243Z,6.18
2022-08-16T19:17:41.380Z,7.03
2022-08-16T19:20:39.022Z,5.32
2022-08-16T19:27:02.564Z,5.43
2022-08-16T19:33:11.598Z,5.43
2022-08-16T19:36:31.980Z,5.63
2022-08-16T19:39:13.633Z,5.30
2022-08-16T19:48:10.969Z,5.18
2022-08-16T19:50:53.472Z,5.53
2022-08-16T19:53:58.772Z,5.47
2022-08-16T19:56:46.775Z,6.53
2022-08-16T19:59:40.554Z,6.88
2022-08-16T20:02:36.868Z,5.95
2022-08-16T20:05:24.118Z,5.50
2022-08-16T20:08:08.599Z,5.97
2022-08-16T20:11:01.722Z,5.28
2022-08-16T20:13:55.450Z,5.38
2022-08-16T20:16:58.816Z,6.00
2022-08-16T20:19:49.578Z,6.82
2022-08-16T20:28:57.159Z,6.05
2022-08-16T20:34:56.177Z,6.25
2022-08-16T20:37:44.921Z,6.25
2022-08-16T20:40:44.074Z,5.75
2022-08-16T20:43:38.941Z,5.40
2022-08-16T20:46:47.484Z,6.88
2022-08-16T20:49:40.651Z,5.43
2022-08-16T20:52:27.273Z,5.10
2022-08-16T20:55:15.968Z,7.65
2022-08-16T20:58:07.119Z,6.30
2022-08-16T21:00:39.026Z,5.60
2022-08-16T21:03:20.128Z,6.00
2022-08-16T21:09:13.040Z,9.02
2022-08-16T21:11:55.431Z,6.25
2022-08-16T21:14:40.198Z,6.22
2022-08-16T21:17:27.382Z,5.53
2022-08-16T21:20:16.585Z,6.03
2022-08-16T21:23:51.035Z,6.20
2022-08-16T21:26:55.348Z,6.13
2022-08-16T21:32:36.517Z,7.03
2022-08-16T21:35:35.190Z,7.72
2022-08-16T21:47:16.018Z,6.72
2022-08-16T21:50:03.886Z,6.20
2022-08-16T21:52:52.379Z,6.22
2022-08-16T21:56:04.170Z,5.90
2022-08-16T22:01:50.825Z,5.63
2022-08-16T22:04:58.305Z,5.53
2022-08-16T22:08:02.443Z,7.97
2022-08-16T22:11:07.252Z,5.93
2022-08-16T22:23:08.492Z,5.55
2022-08-16T22:29:01.635Z,5.90
2022-08-16T22:31:59.702Z,6.30
2022-08-16T22:34:59.547Z,6.18
2022-08-16T22:38:47.833Z,6.65
2022-08-16T22:41:32.524Z,6.05
2022-08-16T22:44:40.176Z,6.72
2022-08-16T22:47:38.924Z,8.40
2022-08-16T23:00:03.472Z,6.18
2022-08-16T23:15:20.135Z,6.30
2022-08-16T23:27:37.533Z,6.03
2022-08-16T23:30:33.785Z,5.72
2022-08-16T23:33:38.572Z,5.70
2022-08-16T23:36:35.660Z,6.70
2022-08-16T23:39:25.150Z,6.55
2022-08-16T23:42:52.594Z,5.40
2022-08-16T23:45:38.977Z,6.53
2022-08-16T23:49:57.924Z,5.78
2022-08-16T23:51:47.142Z,6.20
